Terminal Aerodrome Forecast
Issued by NWS Cleveland, OH

Home | Current Version | Previous Version | Graphics & Text | Print | Product List | Glossary Off
Versions: 1 2 3 4 5 6 7 8 9 10 11 12 13 14 15 16 17 18 19 20 21

000
FTUS41 KCLE 031322 AAA
TAFMFD
TAF AMD
KMFD 031322Z 0313/0412 09006KT P6SM BKN007 BKN018
      TEMPO 0315/0317 SCT007 BKN020
     FM031700 07006KT P6SM SCT020
     FM040100 15004KT P6SM SCT250
     FM041000 15004KT 3SM BR SCT250=

USA.gov is the U.S. government's official web portal to all federal, state and local government web resources and services.